createdAt,value
2023-05-04T05:03:25.333Z,8.61
2023-05-04T05:04:25.379Z,8.89
2023-05-04T05:05:25.269Z,8.91
2023-05-04T05:06:26.249Z,8.88
2023-05-04T05:07:25.282Z,8.94
2023-05-04T05:08:25.241Z,9.02
2023-05-04T05:09:25.225Z,9.02
2023-05-04T05:10:25.260Z,9.01
2023-05-04T05:11:25.961Z,9.04
2023-05-04T05:12:25.911Z,9.10
2023-05-04T05:13:26.916Z,9.14
2023-05-04T05:14:26.556Z,9.14
2023-05-04T05:15:27.715Z,9.16
2023-05-04T05:16:27.349Z,9.16
2023-05-04T05:17:27.017Z,9.16
2023-05-04T05:18:29.493Z,9.21
2023-05-04T05:19:26.743Z,9.20
2023-05-04T05:20:26.658Z,9.26
2023-05-04T05:21:27.533Z,9.32
2023-05-04T05:22:27.469Z,9.33
2023-05-04T05:23:26.961Z,9.34
2023-05-04T05:24:27.839Z,9.33
2023-05-04T05:25:26.709Z,9.33
2023-05-04T05:26:25.732Z,9.37
2023-05-04T05:27:26.961Z,9.42
2023-05-04T05:28:26.828Z,9.41
2023-05-04T05:29:28.394Z,9.48
2023-05-04T05:30:25.948Z,9.50
2023-05-04T05:31:27.026Z,9.57
2023-05-04T05:32:27.554Z,9.58
2023-05-04T05:33:26.854Z,9.56
2023-05-04T05:34:26.425Z,9.46
2023-05-04T05:35:27.026Z,9.31
2023-05-04T05:36:27.059Z,9.27
2023-05-04T05:37:26.178Z,9.28
2023-05-04T05:38:26.340Z,9.26
2023-05-04T05:39:25.906Z,9.24
2023-05-04T05:40:25.807Z,9.27
2023-05-04T05:41:25.920Z,9.25
2023-05-04T05:43:45.117Z,9.26
2023-05-04T05:44:45.028Z,9.36
2023-05-04T05:45:44.860Z,9.45
2023-05-04T05:46:45.984Z,9.48
2023-05-04T05:47:46.020Z,9.55
2023-05-04T05:48:45.882Z,9.62
2023-05-04T05:49:46.432Z,9.66
2023-05-04T05:50:44.862Z,9.77
2023-05-04T05:51:45.853Z,9.84
2023-05-04T05:52:44.835Z,9.92
2023-05-04T05:53:45.863Z,9.95
2023-05-04T05:54:44.796Z,9.95
2023-05-04T05:55:45.782Z,9.90
2023-05-04T05:56:44.801Z,9.85
2023-05-04T05:57:44.779Z,9.82
2023-05-04T05:58:45.813Z,9.87
2023-05-04T05:59:44.807Z,9.93
2023-05-04T06:00:45.771Z,9.97
2023-05-04T06:01:45.934Z,10.02
2023-05-04T06:02:44.863Z,10.06
2023-05-04T06:03:44.953Z,10.03
2023-05-04T06:04:44.787Z,9.96
2023-05-04T06:05:45.773Z,9.97
2023-05-04T06:06:46.148Z,10.11
2023-05-04T06:07:46.680Z,10.20
2023-05-04T06:08:46.007Z,10.29
2023-05-04T06:09:44.870Z,10.33
2023-05-04T06:10:44.921Z,10.34
2023-05-04T06:11:45.080Z,10.32
2023-05-04T06:12:44.977Z,10.33
2023-05-04T06:13:46.022Z,10.41
2023-05-04T06:14:45.059Z,10.50
2023-05-04T06:15:45.053Z,10.60
2023-05-04T06:16:46.241Z,10.65
2023-05-04T06:17:46.566Z,10.68
2023-05-04T06:18:46.157Z,10.76
2023-05-04T06:19:47.579Z,10.82
2023-05-04T06:20:46.709Z,10.83
2023-05-04T06:23:04.343Z,10.73
2023-05-04T06:29:21.222Z,10.93
2023-05-04T06:30:21.248Z,11.02
2023-05-04T06:31:21.336Z,11.11
2023-05-04T06:32:22.275Z,11.20
2023-05-04T06:33:22.213Z,11.13
2023-05-04T06:35:41.338Z,10.78
2023-05-04T06:38:01.124Z,10.76
2023-05-04T06:40:35.727Z,10.70
2023-05-04T06:41:35.728Z,10.88
2023-05-04T06:42:36.666Z,10.87
2023-05-04T06:43:37.058Z,10.86
2023-05-04T06:44:35.945Z,10.86
2023-05-04T06:45:39.650Z,10.95
2023-05-04T06:46:48.758Z,11.01
2023-05-04T06:48:55.864Z,10.78
2023-05-04T06:49:57.264Z,11.02
2023-05-04T06:57:31.454Z,10.91
2023-05-04T07:00:56.674Z,10.78
2023-05-04T07:03:34.926Z,10.78
2023-05-04T07:05:49.687Z,11.08
2023-05-04T07:06:50.721Z,11.24
2023-05-04T07:07:51.446Z,11.28
2023-05-04T07:10:10.195Z,11.35
2023-05-04T07:12:47.408Z,11.34
2023-05-04T07:16:28.818Z,11.47
2023-05-04T07:18:45.589Z,11.66
2023-05-04T07:19:46.003Z,11.77
2023-05-04T07:20:47.185Z,11.86
2023-05-04T07:21:46.205Z,11.95
2023-05-04T07:24:05.135Z,12.01
2023-05-04T07:26:27.420Z,12.06
2023-05-04T07:27:24.599Z,12.10
2023-05-04T07:28:25.358Z,12.05
2023-05-04T07:29:29.573Z,12.05
2023-05-04T07:30:24.916Z,12.07
2023-05-04T07:31:31.012Z,12.06
2023-05-04T07:33:46.095Z,12.08
2023-05-04T07:34:48.789Z,12.22
2023-05-04T07:35:46.031Z,12.29
2023-05-04T07:36:44.994Z,12.33
2023-05-04T07:37:45.473Z,12.31
2023-05-04T07:47:51.867Z,12.08
2023-05-04T07:51:11.763Z,12.19
2023-05-04T07:52:02.969Z,12.43
2023-05-04T07:53:03.780Z,12.46
2023-05-04T07:54:02.751Z,12.51
2023-05-04T07:55:02.767Z,12.54
2023-05-04T07:56:01.981Z,12.60
2023-05-04T07:57:02.746Z,12.65
2023-05-04T07:58:01.786Z,12.75
2023-05-04T07:59:02.698Z,12.84
2023-05-04T08:00:03.031Z,12.85
2023-05-04T08:01:02.735Z,12.81
2023-05-04T08:02:01.787Z,12.87
2023-05-04T08:03:02.911Z,12.93
2023-05-04T08:05:20.784Z,13.02
2023-05-04T08:07:41.377Z,13.04
2023-05-04T08:08:41.347Z,13.14
2023-05-04T08:09:40.358Z,13.17
2023-05-04T08:10:41.317Z,13.19
2023-05-04T08:11:41.382Z,13.25
2023-05-04T08:12:41.378Z,13.21
2023-05-04T08:13:41.297Z,13.27
2023-05-04T08:15:59.350Z,13.36
2023-05-04T08:18:22.685Z,13.33
2023-05-04T08:19:19.535Z,13.43
2023-05-04T08:20:18.833Z,13.42
2023-05-04T08:21:18.508Z,13.47
2023-05-04T08:22:19.526Z,13.55
2023-05-04T08:23:19.487Z,13.59
2023-05-04T08:25:38.464Z,13.42
2023-05-04T08:26:47.308Z,13.51
2023-05-04T08:27:39.014Z,13.48
2023-05-04T08:28:38.990Z,13.53
2023-05-04T08:29:38.075Z,13.54
2023-05-04T08:30:39.025Z,13.59
2023-05-04T08:34:16.813Z,13.62
2023-05-04T08:35:17.701Z,13.67
2023-05-04T08:36:17.937Z,13.67
2023-05-04T08:37:16.590Z,13.72
2023-05-04T08:38:16.603Z,13.81
2023-05-04T08:39:17.601Z,13.83
2023-05-04T08:40:17.576Z,13.88
2023-05-04T08:41:16.565Z,13.90
2023-05-04T08:42:17.522Z,13.89
2023-05-04T08:44:36.775Z,13.81
2023-05-04T08:46:57.250Z,14.06
2023-05-04T08:48:06.350Z,14.18
2023-05-04T08:50:39.852Z,14.04
2023-05-04T08:51:52.077Z,14.20
2023-05-04T08:52:39.589Z,14.14
2023-05-04T08:53:39.565Z,14.18
2023-05-04T08:54:39.690Z,14.28
2023-05-04T08:55:39.565Z,14.30
2023-05-04T08:56:39.895Z,14.28
2023-05-04T08:57:39.548Z,14.24
2023-05-04T08:58:38.555Z,14.27
2023-05-04T08:59:39.522Z,14.35
2023-05-04T09:00:39.601Z,14.45
2023-05-04T09:01:39.543Z,14.55
2023-05-04T09:02:38.512Z,14.63
2023-05-04T09:03:39.548Z,14.65
2023-05-04T09:04:39.494Z,14.65
2023-05-04T09:05:38.500Z,14.67
2023-05-04T09:06:39.540Z,14.72
2023-05-04T09:07:39.450Z,14.76
2023-05-04T09:08:38.465Z,14.88
2023-05-04T09:09:38.540Z,14.98
2023-05-04T09:10:39.571Z,15.03
2023-05-04T09:11:38.450Z,15.02
2023-05-04T09:12:39.485Z,15.09
2023-05-04T09:13:39.483Z,15.15
2023-05-04T09:14:40.377Z,15.18
2023-05-04T09:15:39.434Z,15.18
2023-05-04T09:16:42.978Z,15.14
2023-05-04T09:17:50.972Z,15.15
2023-05-04T09:18:39.428Z,15.15
2023-05-04T09:20:57.704Z,15.24
2023-05-04T09:21:58.564Z,15.31
2023-05-04T09:22:58.469Z,15.32
2023-05-04T09:23:58.441Z,15.31
2023-05-04T09:24:58.386Z,15.38
2023-05-04T09:25:58.588Z,15.41
2023-05-04T09:26:57.482Z,15.44
2023-05-04T09:27:58.610Z,15.46
2023-05-04T09:28:57.374Z,15.54
2023-05-04T09:29:58.385Z,15.61
2023-05-04T09:30:57.349Z,15.67
2023-05-04T09:31:58.341Z,15.75
2023-05-04T09:32:57.464Z,15.81
2023-05-04T09:33:58.320Z,15.87
2023-05-04T09:34:57.389Z,15.90
2023-05-04T09:35:58.366Z,15.86
2023-05-04T09:36:58.323Z,15.85
2023-05-04T09:37:58.355Z,15.89
2023-05-04T09:38:58.281Z,15.87
2023-05-04T09:39:57.334Z,15.93
2023-05-04T09:40:57.355Z,15.98
2023-05-04T09:41:58.375Z,16.04
2023-05-04T09:42:57.357Z,16.08
2023-05-04T09:43:58.373Z,16.11
2023-05-04T09:44:58.407Z,16.13
2023-05-04T09:45:57.555Z,16.20
2023-05-04T09:46:58.526Z,16.26
2023-05-04T09:47:58.569Z,16.23
2023-05-04T09:48:58.508Z,16.15
2023-05-04T09:49:58.547Z,16.14
2023-05-04T09:50:58.542Z,16.16
2023-05-04T09:51:59.024Z,16.24
2023-05-04T09:52:58.583Z,16.30
2023-05-04T09:53:57.758Z,16.35
2023-05-04T09:54:57.698Z,16.37
2023-05-04T09:55:58.638Z,16.45
2023-05-04T09:56:58.796Z,16.47
2023-05-04T09:57:58.824Z,16.48
2023-05-04T09:58:57.876Z,16.53
2023-05-04T09:59:57.932Z,16.59
2023-05-04T10:00:58.965Z,16.62
2023-05-04T10:02:00.416Z,16.70
2023-05-04T10:02:59.154Z,16.76
2023-05-04T10:03:59.064Z,16.82
2023-05-04T10:04:59.077Z,16.86
2023-05-04T10:05:59.221Z,16.91
2023-05-04T10:06:59.045Z,16.99
2023-05-04T10:07:59.008Z,17.03
2023-05-04T10:08:58.022Z,17.09
2023-05-04T10:09:57.999Z,17.03
2023-05-04T10:10:58.012Z,16.94
2023-05-04T10:12:00.586Z,16.89
2023-05-04T10:12:58.989Z,16.86
2023-05-04T10:13:58.938Z,16.93
2023-05-04T10:14:58.938Z,17.00
2023-05-04T10:15:59.001Z,17.06
2023-05-04T10:16:58.936Z,17.13
2023-05-04T10:17:58.946Z,17.20
2023-05-04T10:18:57.930Z,17.24
2023-05-04T10:19:58.900Z,17.22
2023-05-04T10:20:58.898Z,17.20
2023-05-04T10:21:57.922Z,17.14
2023-05-04T10:22:57.902Z,17.14
2023-05-04T10:23:57.892Z,17.19
2023-05-04T10:24:58.887Z,17.28
2023-05-04T10:25:58.873Z,17.35
2023-05-04T10:26:58.838Z,17.40
2023-05-04T10:27:57.853Z,17.49
2023-05-04T10:28:58.853Z,17.56
2023-05-04T10:29:57.837Z,17.65
2023-05-04T10:30:58.832Z,17.70
2023-05-04T10:31:58.941Z,17.78
2023-05-04T10:32:58.899Z,17.83
2023-05-04T10:33:58.815Z,17.80
2023-05-04T10:34:57.795Z,17.80
2023-05-04T10:35:58.782Z,17.90
2023-05-04T10:36:58.784Z,17.98
2023-05-04T10:37:58.859Z,18.01
2023-05-04T10:38:58.788Z,18.02
2023-05-04T10:39:58.778Z,18.08
2023-05-04T10:40:57.776Z,18.12
2023-05-04T10:41:58.768Z,18.10
2023-05-04T10:42:59.035Z,18.01
2023-05-04T10:43:58.740Z,17.98
2023-05-04T10:44:58.746Z,18.05
2023-05-04T10:45:57.775Z,18.13
2023-05-04T10:46:59.827Z,18.20
2023-05-04T10:47:58.075Z,18.28
2023-05-04T10:48:58.729Z,18.35
2023-05-04T10:49:57.701Z,18.39
2023-05-04T10:50:58.695Z,18.38
2023-05-04T10:51:58.686Z,18.39
2023-05-04T10:52:59.504Z,18.32
2023-05-04T10:53:59.265Z,18.36
2023-05-04T10:54:58.929Z,18.36
2023-05-04T10:55:58.802Z,18.42
2023-05-04T10:56:58.869Z,18.44
2023-05-04T10:57:58.864Z,18.33
2023-05-04T10:58:57.886Z,18.26
2023-05-04T10:59:58.950Z,18.27
2023-05-04T11:00:58.022Z,18.35
2023-05-04T11:01:58.965Z,18.44
2023-05-04T11:02:58.118Z,18.55
2023-05-04T11:03:59.057Z,18.66
2023-05-04T11:04:58.042Z,18.82
2023-05-04T11:05:59.082Z,18.86
2023-05-04T11:06:59.117Z,18.96
2023-05-04T11:07:59.935Z,18.94
2023-05-04T11:08:58.167Z,18.99
2023-05-04T11:09:58.189Z,19.00
2023-05-04T11:10:59.224Z,18.92
2023-05-04T11:11:59.296Z,18.95
2023-05-04T11:12:59.352Z,18.98
2023-05-04T11:13:59.481Z,18.92
2023-05-04T11:14:59.436Z,18.96
2023-05-04T11:15:59.543Z,19.06
2023-05-04T11:16:59.471Z,19.14
2023-05-04T11:17:59.556Z,19.21
2023-05-04T11:18:59.555Z,19.27
2023-05-04T11:19:59.547Z,19.33
2023-05-04T11:20:59.596Z,19.38
2023-05-04T11:21:58.722Z,19.44
2023-05-04T11:22:58.719Z,19.47
2023-05-04T11:23:59.732Z,19.48
2023-05-04T11:24:58.746Z,19.39
2023-05-04T11:25:58.795Z,19.45
2023-05-04T11:26:58.827Z,19.64
2023-05-04T11:27:59.856Z,19.71
2023-05-04T11:28:59.878Z,19.75
2023-05-04T11:29:58.969Z,19.74
2023-05-04T11:30:59.981Z,19.83
2023-05-04T11:31:59.033Z,19.84
2023-05-04T11:32:59.135Z,19.82
2023-05-04T11:33:59.081Z,19.88
2023-05-04T11:34:59.135Z,19.94
2023-05-04T11:35:59.105Z,19.99
2023-05-04T11:37:00.214Z,20.04
2023-05-04T11:37:59.583Z,20.01
2023-05-04T11:39:00.254Z,20.01
2023-05-04T11:39:59.212Z,20.10
2023-05-04T11:41:00.240Z,20.11
2023-05-04T11:41:59.254Z,20.06
2023-05-04T11:42:59.203Z,20.08
2023-05-04T11:44:00.260Z,20.11
2023-05-04T11:45:00.287Z,20.17
2023-05-04T11:45:59.362Z,20.22
2023-05-04T11:46:59.342Z,20.27
2023-05-04T11:47:59.506Z,20.34
2023-05-04T11:48:59.367Z,20.37
2023-05-04T11:50:00.485Z,20.42
2023-05-04T11:51:00.515Z,20.45
2023-05-04T11:52:00.570Z,20.45
2023-05-04T11:52:59.655Z,20.38
2023-05-04T11:53:59.593Z,20.37
2023-05-04T11:55:00.610Z,20.48
2023-05-04T11:56:00.039Z,20.54
2023-05-04T11:57:00.864Z,20.59
2023-05-04T11:57:59.729Z,20.64
2023-05-04T11:58:59.779Z,20.62
2023-05-04T12:00:00.708Z,20.70
2023-05-04T12:01:00.775Z,20.70
2023-05-04T12:02:00.806Z,20.70
2023-05-04T12:03:00.984Z,20.72
2023-05-04T12:03:59.891Z,20.77
2023-05-04T12:04:59.896Z,20.83
2023-05-04T12:05:59.974Z,20.89
2023-05-04T12:07:01.740Z,20.94
2023-05-04T12:08:01.038Z,20.97
2023-05-04T12:09:01.013Z,21.01
2023-05-04T12:10:00.094Z,21.02
2023-05-04T12:11:00.068Z,21.06
2023-05-04T12:12:00.147Z,21.12
2023-05-04T12:13:01.232Z,21.15
2023-05-04T12:14:00.180Z,21.17
2023-05-04T12:15:01.231Z,21.21
2023-05-04T12:16:00.274Z,21.27
2023-05-04T12:17:01.282Z,21.36
2023-05-04T12:18:02.500Z,21.37
2023-05-04T12:19:00.260Z,21.44
2023-05-04T12:20:00.288Z,21.52
2023-05-04T12:21:02.803Z,21.54
2023-05-04T12:22:01.300Z,21.57
2023-05-04T12:23:00.234Z,21.62
2023-05-04T12:24:01.210Z,21.65
2023-05-04T12:25:00.285Z,21.65
2023-05-04T12:26:00.225Z,21.68
2023-05-04T12:27:00.205Z,21.73
2023-05-04T12:28:00.173Z,21.81
2023-05-04T12:29:00.149Z,21.78
2023-05-04T12:30:00.211Z,21.68
2023-05-04T12:31:00.200Z,21.66
2023-05-04T12:32:00.256Z,21.71
2023-05-04T12:33:00.298Z,21.77
2023-05-04T12:34:00.297Z,21.83
2023-05-04T12:35:00.212Z,21.88
2023-05-04T12:36:00.188Z,21.97
2023-05-04T12:37:00.151Z,22.04
2023-05-04T12:38:01.183Z,21.97
2023-05-04T12:39:00.162Z,21.77
2023-05-04T12:40:01.196Z,21.76
2023-05-04T12:41:01.172Z,21.84
2023-05-04T12:42:01.076Z,21.90
2023-05-04T12:43:01.153Z,21.88
2023-05-04T12:44:00.081Z,21.92
2023-05-04T12:45:01.092Z,21.97
2023-05-04T12:46:01.156Z,22.06
2023-05-04T12:47:01.122Z,22.10
2023-05-04T12:48:00.236Z,22.19
2023-05-04T12:49:00.025Z,22.25
2023-05-04T12:50:00.041Z,22.35
2023-05-04T12:51:00.081Z,22.36
2023-05-04T12:52:00.080Z,22.34
2023-05-04T12:53:00.014Z,22.25
2023-05-04T12:54:00.050Z,22.30
2023-05-04T12:55:01.108Z,22.27
2023-05-04T12:56:00.204Z,22.36
2023-05-04T12:57:00.113Z,22.38
2023-05-04T12:58:01.161Z,22.44
2023-05-04T12:59:00.134Z,22.50
2023-05-04T13:00:01.232Z,22.45
2023-05-04T13:01:00.297Z,22.47
2023-05-04T13:02:00.249Z,22.53
2023-05-04T13:03:00.494Z,22.54
2023-05-04T13:04:01.429Z,22.50
2023-05-04T13:05:00.378Z,22.57
2023-05-04T13:06:00.529Z,22.58
2023-05-04T13:07:01.445Z,22.63
2023-05-04T13:08:00.509Z,22.71
2023-05-04T13:09:00.498Z,22.74
2023-05-04T13:10:00.509Z,22.82
2023-05-04T13:11:01.612Z,22.89
2023-05-04T13:12:00.619Z,22.97
2023-05-04T13:13:01.773Z,23.00
2023-05-04T13:14:00.757Z,23.08
2023-05-04T13:15:00.733Z,23.16
2023-05-04T13:16:00.866Z,23.20
2023-05-04T13:17:01.898Z,23.20
2023-05-04T13:18:00.883Z,23.18
2023-05-04T13:19:00.904Z,23.22
2023-05-04T13:20:00.935Z,23.22
2023-05-04T13:21:00.957Z,23.11
2023-05-04T13:22:01.104Z,23.15
2023-05-04T13:23:01.232Z,23.18
2023-05-04T13:24:01.098Z,23.10
2023-05-04T13:25:01.141Z,22.99
2023-05-04T13:26:02.173Z,23.06
2023-05-04T13:27:02.306Z,23.15
2023-05-04T13:28:01.217Z,23.16
2023-05-04T13:29:01.257Z,23.09
2023-05-04T13:30:01.339Z,23.06
2023-05-04T13:31:01.378Z,23.09
2023-05-04T13:32:02.508Z,23.17
2023-05-04T13:33:07.702Z,23.16
2023-05-04T13:34:02.372Z,23.25
2023-05-04T13:35:01.316Z,23.32
2023-05-04T13:36:01.329Z,23.34
2023-05-04T13:37:02.402Z,23.48
2023-05-04T13:38:02.372Z,23.61
2023-05-04T13:39:01.364Z,23.63
2023-05-04T13:40:02.345Z,23.66
2023-05-04T13:41:01.274Z,23.70
2023-05-04T13:42:01.360Z,23.64
2023-05-04T13:43:01.341Z,23.51
2023-05-04T13:44:01.315Z,23.58
2023-05-04T13:45:01.299Z,23.63
2023-05-04T13:46:02.280Z,23.68
2023-05-04T13:47:01.378Z,23.61
2023-05-04T13:48:01.274Z,23.73
2023-05-04T13:49:02.229Z,23.85
2023-05-04T13:50:02.255Z,23.89
2023-05-04T13:51:01.285Z,23.87
2023-05-04T13:52:01.265Z,23.86
2023-05-04T13:53:01.217Z,23.93
2023-05-04T13:54:02.693Z,23.86
2023-05-04T13:55:01.255Z,23.82
2023-05-04T13:56:02.249Z,23.87
2023-05-04T13:57:01.249Z,23.98
2023-05-04T13:58:01.244Z,24.08
2023-05-04T13:59:02.230Z,23.98
2023-05-04T14:00:06.661Z,24.00
2023-05-04T14:01:02.183Z,24.07
2023-05-04T14:02:01.240Z,24.01
2023-05-04T14:03:01.293Z,23.83
2023-05-04T14:04:02.206Z,23.83
2023-05-04T14:05:01.202Z,23.82
2023-05-04T14:06:01.156Z,23.99
2023-05-04T14:07:02.089Z,24.19
2023-05-04T14:08:02.097Z,24.27
2023-05-04T14:09:02.216Z,24.39
2023-05-04T14:10:01.124Z,24.26
2023-05-04T14:11:01.074Z,24.27
2023-05-04T14:12:01.109Z,24.20
2023-05-04T14:13:01.109Z,24.21
2023-05-04T14:14:02.199Z,24.33
2023-05-04T14:15:01.281Z,24.33
2023-05-04T14:16:01.327Z,24.25
2023-05-04T14:17:01.245Z,24.16
2023-05-04T14:18:01.416Z,24.27
2023-05-04T14:19:01.307Z,24.33
2023-05-04T14:20:01.376Z,24.46
2023-05-04T14:21:02.354Z,24.62
2023-05-04T14:22:02.390Z,24.80
2023-05-04T14:23:01.339Z,24.67
2023-05-04T14:24:01.513Z,24.57
2023-05-04T14:25:02.509Z,24.54
2023-05-04T14:26:01.545Z,24.60
2023-05-04T14:27:02.565Z,24.67
2023-05-04T14:28:01.575Z,24.65
2023-05-04T14:29:01.559Z,24.64
2023-05-04T14:30:02.668Z,24.73
2023-05-04T14:31:01.721Z,24.72
2023-05-04T14:32:01.717Z,24.61
2023-05-04T14:33:02.828Z,24.67
2023-05-04T14:34:01.818Z,24.62
2023-05-04T14:35:01.806Z,24.67
2023-05-04T14:36:01.814Z,24.74
2023-05-04T14:37:01.920Z,24.78
2023-05-04T14:38:02.822Z,24.76
2023-05-04T14:39:02.835Z,24.80
2023-05-04T14:40:01.906Z,24.67
2023-05-04T14:41:03.027Z,24.63
2023-05-04T14:42:02.945Z,24.65
2023-05-04T14:43:02.969Z,24.65
2023-05-04T14:44:02.076Z,24.54
2023-05-04T14:45:01.959Z,24.61
2023-05-04T14:46:02.113Z,24.72
2023-05-04T14:47:02.051Z,24.77
2023-05-04T14:48:02.053Z,24.79
2023-05-04T14:49:02.101Z,24.83
2023-05-04T14:50:02.243Z,24.88
2023-05-04T14:51:02.165Z,24.91
2023-05-04T14:52:03.204Z,24.90
2023-05-04T14:53:02.236Z,24.85
2023-05-04T14:54:03.279Z,24.89
2023-05-04T14:55:02.297Z,24.97
2023-05-04T14:56:03.270Z,24.95
2023-05-04T14:57:02.291Z,24.90
2023-05-04T14:58:02.240Z,24.90
2023-05-04T14:59:03.378Z,24.73
2023-05-04T15:00:02.362Z,24.72
2023-05-04T15:01:02.388Z,24.79
2023-05-04T15:02:03.355Z,24.85
2023-05-04T15:03:02.510Z,24.95
2023-05-04T15:04:02.386Z,24.99
2023-05-04T15:05:02.407Z,25.03
2023-05-04T15:06:03.509Z,25.17
2023-05-04T15:07:03.572Z,25.25
2023-05-04T15:08:02.490Z,25.29
2023-05-04T15:09:02.584Z,25.38
2023-05-04T15:10:02.650Z,25.47
2023-05-04T15:11:02.669Z,25.50
2023-05-04T15:12:03.733Z,25.56
2023-05-04T15:13:02.700Z,25.58
2023-05-04T15:14:02.773Z,25.68
2023-05-04T15:15:02.684Z,25.72
2023-05-04T15:16:03.761Z,25.73
2023-05-04T15:17:03.789Z,25.77
2023-05-04T15:18:03.797Z,25.83
2023-05-04T15:19:02.793Z,25.62
2023-05-04T15:20:02.775Z,25.66
2023-05-04T15:21:03.828Z,25.59
2023-05-04T15:22:02.833Z,25.61
2023-05-04T15:23:03.871Z,25.63
2023-05-04T15:24:03.949Z,25.69
2023-05-04T15:25:03.899Z,25.73
2023-05-04T15:26:02.958Z,25.80
2023-05-04T15:27:03.935Z,25.88
2023-05-04T15:28:02.944Z,25.96
2023-05-04T15:29:03.059Z,26.01
2023-05-04T15:30:03.355Z,26.05
